sensor_id;sensor_type;location;lat;lon;timestamp;temperature;humidity
14411;DHT22;7290;50.854;4.354;2022-12-11T00:01:15;3.40;99.90
14411;DHT22;7290;50.854;4.354;2022-12-11T00:03:42;3.50;99.90
14411;DHT22;7290;50.854;4.354;2022-12-11T00:06:10;3.40;99.90
14411;DHT22;7290;50.854;4.354;2022-12-11T00:08:38;3.40;99.90
14411;DHT22;7290;50.854;4.354;2022-12-11T00:11:06;3.40;99.90
14411;DHT22;7290;50.854;4.354;2022-12-11T00:13:32;3.40;99.90
14411;DHT22;7290;50.854;4.354;2022-12-11T00:15:58;3.30;99.90
14411;DHT22;7290;50.854;4.354;2022-12-11T00:18:24;3.40;99.90
14411;DHT22;7290;50.854;4.354;2022-12-11T00:20:51;3.40;99.90
14411;DHT22;7290;50.854;4.354;2022-12-11T00:23:17;3.40;99.90
14411;DHT22;7290;50.854;4.354;2022-12-11T00:25:45;3.50;99.90
14411;DHT22;7290;50.854;4.354;2022-12-11T00:28:12;3.50;99.90
14411;DHT22;7290;50.854;4.354;2022-12-11T00:30:39;3.50;99.90
14411;DHT22;7290;50.854;4.354;2022-12-11T00:33:06;3.50;99.90
14411;DHT22;7290;50.854;4.354;2022-12-11T00:35:32;3.50;99.90
14411;DHT22;7290;50.854;4.354;2022-12-11T00:37:58;3.50;99.90
14411;DHT22;7290;50.854;4.354;2022-12-11T00:40:24;3.50;99.90
14411;DHT22;7290;50.854;4.354;2022-12-11T00:42:51;3.60;99.90
14411;DHT22;7290;50.854;4.354;2022-12-11T00:45:17;3.50;99.90
14411;DHT22;7290;50.854;4.354;2022-12-11T00:47:43;3.60;99.90
14411;DHT22;7290;50.854;4.354;2022-12-11T00:50:09;3.70;99.90
14411;DHT22;7290;50.854;4.354;2022-12-11T00:52:36;3.70;99.90
14411;DHT22;7290;50.854;4.354;2022-12-11T00:55:03;3.70;99.90
14411;DHT22;7290;50.854;4.354;2022-12-11T00:57:30;3.60;99.90
14411;DHT22;7290;50.854;4.354;2022-12-11T00:59:56;3.70;99.90
14411;DHT22;7290;50.854;4.354;2022-12-11T01:02:22;3.60;99.90
14411;DHT22;7290;50.854;4.354;2022-12-11T01:04:48;3.60;99.90
14411;DHT22;7290;50.854;4.354;2022-12-11T01:07:15;3.50;99.90
14411;DHT22;7290;50.854;4.354;2022-12-11T01:09:41;3.70;99.90
14411;DHT22;7290;50.854;4.354;2022-12-11T01:12:25;3.50;99.90
14411;DHT22;7290;50.854;4.354;2022-12-11T01:14:53;3.60;99.90
14411;DHT22;7290;50.854;4.354;2022-12-11T01:17:19;3.60;99.90
14411;DHT22;7290;50.854;4.354;2022-12-11T01:19:45;3.60;99.90
14411;DHT22;7290;50.854;4.354;2022-12-11T01:22:12;3.50;99.90
14411;DHT22;7290;50.854;4.354;2022-12-11T01:24:38;3.70;99.90
14411;DHT22;7290;50.854;4.354;2022-12-11T01:27:04;3.70;99.90
14411;DHT22;7290;50.854;4.354;2022-12-11T01:29:31;3.60;99.90
14411;DHT22;7290;50.854;4.354;2022-12-11T01:31:57;3.60;99.90
14411;DHT22;7290;50.854;4.354;2022-12-11T01:34:24;3.60;99.90
14411;DHT22;7290;50.854;4.354;2022-12-11T01:36:51;3.60;99.90
14411;DHT22;7290;50.854;4.354;2022-12-11T01:39:17;3.60;99.90
14411;DHT22;7290;50.854;4.354;2022-12-11T01:41:43;3.60;99.90
14411;DHT22;7290;50.854;4.354;2022-12-11T01:47:09;3.70;99.90
14411;DHT22;7290;50.854;4.354;2022-12-11T01:49:36;3.70;99.90
14411;DHT22;7290;50.854;4.354;2022-12-11T01:52:07;3.80;99.90
14411;DHT22;7290;50.854;4.354;2022-12-11T01:54:34;3.90;99.90
14411;DHT22;7290;50.854;4.354;2022-12-11T01:57:03;4.00;99.90
14411;DHT22;7290;50.854;4.354;2022-12-11T01:59:32;4.10;99.90
14411;DHT22;7290;50.854;4.354;2022-12-11T02:02:03;4.20;99.90
14411;DHT22;7290;50.854;4.354;2022-12-11T02:04:32;4.00;99.90
14411;DHT22;7290;50.854;4.354;2022-12-11T02:07:00;4.00;99.90
14411;DHT22;7290;50.854;4.354;2022-12-11T02:09:30;4.00;99.90
14411;DHT22;7290;50.854;4.354;2022-12-11T02:12:01;4.00;99.90
14411;DHT22;7290;50.854;4.354;2022-12-11T02:14:33;4.00;99.90
14411;DHT22;7290;50.854;4.354;2022-12-11T02:17:06;4.00;99.90
14411;DHT22;7290;50.854;4.354;2022-12-11T02:19:51;3.90;99.90
14411;DHT22;7290;50.854;4.354;2022-12-11T02:22:27;3.80;99.90
14411;DHT22;7290;50.854;4.354;2022-12-11T02:25:04;3.80;99.90
14411;DHT22;7290;50.854;4.354;2022-12-11T02:27:40;3.80;99.90
14411;DHT22;7290;50.854;4.354;2022-12-11T02:30:10;3.80;99.90
14411;DHT22;7290;50.854;4.354;2022-12-11T02:32:42;3.90;99.90
14411;DHT22;7290;50.854;4.354;2022-12-11T02:35:13;3.80;99.90
14411;DHT22;7290;50.854;4.354;2022-12-11T02:37:44;3.80;99.90
14411;DHT22;7290;50.854;4.354;2022-12-11T02:40:13;3.70;99.90
14411;DHT22;7290;50.854;4.354;2022-12-11T02:42:42;3.80;99.90
14411;DHT22;7290;50.854;4.354;2022-12-11T02:45:12;3.80;99.90
14411;DHT22;7290;50.854;4.354;2022-12-11T02:47:39;3.80;99.90
14411;DHT22;7290;50.854;4.354;2022-12-11T02:50:08;3.90;99.90
14411;DHT22;7290;50.854;4.354;2022-12-11T02:52:36;3.90;99.90
14411;DHT22;7290;50.854;4.354;2022-12-11T02:55:08;4.00;99.90
14411;DHT22;7290;50.854;4.354;2022-12-11T02:57:39;4.00;99.90
14411;DHT22;7290;50.854;4.354;2022-12-11T03:00:09;3.90;99.90
14411;DHT22;7290;50.854;4.354;2022-12-11T03:02:36;4.00;99.90
14411;DHT22;7290;50.854;4.354;2022-12-11T03:05:04;3.90;99.90
14411;DHT22;7290;50.854;4.354;2022-12-11T03:07:34;3.80;99.90
14411;DHT22;7290;50.854;4.354;2022-12-11T03:10:01;3.80;99.90
14411;DHT22;7290;50.854;4.354;2022-12-11T03:12:29;3.70;99.90
14411;DHT22;7290;50.854;4.354;2022-12-11T03:14:58;3.70;99.90
14411;DHT22;7290;50.854;4.354;2022-12-11T03:17:29;3.70;99.90
14411;DHT22;7290;50.854;4.354;2022-12-11T03:20:01;3.80;99.90
14411;DHT22;7290;50.854;4.354;2022-12-11T03:22:37;3.80;99.90
14411;DHT22;7290;50.854;4.354;2022-12-11T03:25:07;3.60;99.90
14411;DHT22;7290;50.854;4.354;2022-12-11T03:27:39;3.60;99.90
14411;DHT22;7290;50.854;4.354;2022-12-11T03:30:10;3.60;99.90
14411;DHT22;7290;50.854;4.354;2022-12-11T03:32:42;3.60;99.90
14411;DHT22;7290;50.854;4.354;2022-12-11T03:35:15;3.50;99.90
14411;DHT22;7290;50.854;4.354;2022-12-11T03:37:43;3.60;99.90
14411;DHT22;7290;50.854;4.354;2022-12-11T03:40:14;3.60;99.90
14411;DHT22;7290;50.854;4.354;2022-12-11T03:42:43;3.50;99.90
14411;DHT22;7290;50.854;4.354;2022-12-11T03:45:10;3.60;99.90
14411;DHT22;7290;50.854;4.354;2022-12-11T03:47:39;3.70;99.90
14411;DHT22;7290;50.854;4.354;2022-12-11T03:50:08;3.70;99.90
14411;DHT22;7290;50.854;4.354;2022-12-11T03:52:36;3.70;99.90
14411;DHT22;7290;50.854;4.354;2022-12-11T03:55:04;3.60;99.90
14411;DHT22;7290;50.854;4.354;2022-12-11T03:57:35;3.60;99.90
14411;DHT22;7290;50.854;4.354;2022-12-11T04:00:02;3.60;99.90
14411;DHT22;7290;50.854;4.354;2022-12-11T04:02:29;3.60;99.90
14411;DHT22;7290;50.854;4.354;2022-12-11T04:04:56;3.70;99.90
14411;DHT22;7290;50.854;4.354;2022-12-11T04:07:22;3.80;99.90
14411;DHT22;7290;50.854;4.354;2022-12-11T04:09:48;3.70;99.90
14411;DHT22;7290;50.854;4.354;2022-12-11T04:12:14;3.70;99.90
14411;DHT22;7290;50.854;4.354;2022-12-11T04:14:40;3.70;99.90
14411;DHT22;7290;50.854;4.354;2022-12-11T04:17:24;3.80;99.90
14411;DHT22;7290;50.854;4.354;2022-12-11T04:20:10;3.80;99.90
14411;DHT22;7290;50.854;4.354;2022-12-11T04:22:54;3.80;99.90
14411;DHT22;7290;50.854;4.354;2022-12-11T04:25:38;3.70;99.90
14411;DHT22;7290;50.854;4.354;2022-12-11T04:28:04;3.80;99.90
14411;DHT22;7290;50.854;4.354;2022-12-11T04:30:30;3.90;99.90
14411;DHT22;7290;50.854;4.354;2022-12-11T04:32:57;3.70;99.90
14411;DHT22;7290;50.854;4.354;2022-12-11T04:35:24;3.70;99.90
14411;DHT22;7290;50.854;4.354;2022-12-11T04:37:51;3.60;99.90
14411;DHT22;7290;50.854;4.354;2022-12-11T04:40:18;3.70;99.90
14411;DHT22;7290;50.854;4.354;2022-12-11T04:42:45;3.70;99.90
14411;DHT22;7290;50.854;4.354;2022-12-11T04:45:12;3.80;99.90
14411;DHT22;7290;50.854;4.354;2022-12-11T04:47:39;3.80;99.90
14411;DHT22;7290;50.854;4.354;2022-12-11T04:50:07;3.80;99.90
14411;DHT22;7290;50.854;4.354;2022-12-11T04:52:35;3.70;99.90
14411;DHT22;7290;50.854;4.354;2022-12-11T04:55:02;3.70;99.90
14411;DHT22;7290;50.854;4.354;2022-12-11T04:57:28;3.70;99.90
14411;DHT22;7290;50.854;4.354;2022-12-11T04:59:54;3.70;99.90
14411;DHT22;7290;50.854;4.354;2022-12-11T05:02:20;3.80;99.90
14411;DHT22;7290;50.854;4.354;2022-12-11T05:04:47;3.80;99.90
14411;DHT22;7290;50.854;4.354;2022-12-11T05:07:13;3.80;99.90
14411;DHT22;7290;50.854;4.354;2022-12-11T05:09:39;3.70;99.90
14411;DHT22;7290;50.854;4.354;2022-12-11T05:12:06;3.70;99.90
14411;DHT22;7290;50.854;4.354;2022-12-11T05:14:32;3.70;99.90
14411;DHT22;7290;50.854;4.354;2022-12-11T05:16:58;3.70;99.90
14411;DHT22;7290;50.854;4.354;2022-12-11T05:19:25;3.90;99.90
14411;DHT22;7290;50.854;4.354;2022-12-11T05:21:51;3.90;99.90
14411;DHT22;7290;50.854;4.354;2022-12-11T05:24:17;3.90;99.90
14411;DHT22;7290;50.854;4.354;2022-12-11T05:26:44;3.90;99.90
14411;DHT22;7290;50.854;4.354;2022-12-11T05:29:10;3.70;99.90
14411;DHT22;7290;50.854;4.354;2022-12-11T05:31:36;3.70;99.90
14411;DHT22;7290;50.854;4.354;2022-12-11T05:34:03;3.80;99.90
14411;DHT22;7290;50.854;4.354;2022-12-11T05:36:30;3.80;99.90
14411;DHT22;7290;50.854;4.354;2022-12-11T05:38:58;3.90;99.90
14411;DHT22;7290;50.854;4.354;2022-12-11T05:41:26;3.70;99.90
14411;DHT22;7290;50.854;4.354;2022-12-11T05:43:53;3.80;99.90
14411;DHT22;7290;50.854;4.354;2022-12-11T05:46:21;3.80;99.90
14411;DHT22;7290;50.854;4.354;2022-12-11T05:48:49;3.70;99.90
14411;DHT22;7290;50.854;4.354;2022-12-11T05:51:16;3.70;99.90
14411;DHT22;7290;50.854;4.354;2022-12-11T05:53:44;3.70;99.90
14411;DHT22;7290;50.854;4.354;2022-12-11T05:56:12;3.70;99.90
14411;DHT22;7290;50.854;4.354;2022-12-11T05:58:39;3.60;99.90
14411;DHT22;7290;50.854;4.354;2022-12-11T06:01:08;3.50;99.90
14411;DHT22;7290;50.854;4.354;2022-12-11T06:03:36;3.40;99.90
14411;DHT22;7290;50.854;4.354;2022-12-11T06:06:03;3.40;99.90
14411;DHT22;7290;50.854;4.354;2022-12-11T06:08:29;3.40;99.90
14411;DHT22;7290;50.854;4.354;2022-12-11T06:10:55;3.40;99.90
14411;DHT22;7290;50.854;4.354;2022-12-11T06:13:21;3.50;99.90
14411;DHT22;7290;50.854;4.354;2022-12-11T06:15:47;3.60;99.90
14411;DHT22;7290;50.854;4.354;2022-12-11T06:18:14;3.70;99.90
14411;DHT22;7290;50.854;4.354;2022-12-11T06:20:40;3.70;99.90
14411;DHT22;7290;50.854;4.354;2022-12-11T06:23:06;3.70;99.90
14411;DHT22;7290;50.854;4.354;2022-12-11T06:25:33;3.50;99.90
14411;DHT22;7290;50.854;4.354;2022-12-11T06:27:59;3.50;99.90
14411;DHT22;7290;50.854;4.354;2022-12-11T06:30:25;3.50;99.90
14411;DHT22;7290;50.854;4.354;2022-12-11T06:32:51;3.40;99.90
14411;DHT22;7290;50.854;4.354;2022-12-11T06:35:18;3.50;99.90
14411;DHT22;7290;50.854;4.354;2022-12-11T06:37:44;3.60;99.90
14411;DHT22;7290;50.854;4.354;2022-12-11T06:40:10;3.70;99.90
14411;DHT22;7290;50.854;4.354;2022-12-11T06:42:37;3.60;99.90
14411;DHT22;7290;50.854;4.354;2022-12-11T06:45:04;3.60;99.90
14411;DHT22;7290;50.854;4.354;2022-12-11T06:47:30;3.60;99.90
14411;DHT22;7290;50.854;4.354;2022-12-11T06:49:57;3.70;99.90
14411;DHT22;7290;50.854;4.354;2022-12-11T06:52:25;3.70;99.90
14411;DHT22;7290;50.854;4.354;2022-12-11T06:54:52;3.80;99.90
14411;DHT22;7290;50.854;4.354;2022-12-11T06:57:18;3.70;99.90
14411;DHT22;7290;50.854;4.354;2022-12-11T06:59:44;3.60;99.90
14411;DHT22;7290;50.854;4.354;2022-12-11T07:02:12;3.60;99.90
14411;DHT22;7290;50.854;4.354;2022-12-11T07:04:38;3.60;99.90
14411;DHT22;7290;50.854;4.354;2022-12-11T07:07:04;3.50;99.90
14411;DHT22;7290;50.854;4.354;2022-12-11T07:09:31;3.60;99.90
14411;DHT22;7290;50.854;4.354;2022-12-11T07:11:59;3.60;99.90
14411;DHT22;7290;50.854;4.354;2022-12-11T07:14:25;3.50;99.90
14411;DHT22;7290;50.854;4.354;2022-12-11T07:16:52;3.50;99.90
14411;DHT22;7290;50.854;4.354;2022-12-11T07:19:18;3.50;99.90
14411;DHT22;7290;50.854;4.354;2022-12-11T07:21:44;3.60;99.90
14411;DHT22;7290;50.854;4.354;2022-12-11T07:24:11;3.70;99.90
14411;DHT22;7290;50.854;4.354;2022-12-11T07:26:38;3.80;99.90
14411;DHT22;7290;50.854;4.354;2022-12-11T07:29:04;3.70;99.90
14411;DHT22;7290;50.854;4.354;2022-12-11T07:31:30;3.70;99.90
14411;DHT22;7290;50.854;4.354;2022-12-11T07:33:57;3.50;99.90
14411;DHT22;7290;50.854;4.354;2022-12-11T07:36:24;3.50;99.90
14411;DHT22;7290;50.854;4.354;2022-12-11T07:38:52;3.50;99.90
14411;DHT22;7290;50.854;4.354;2022-12-11T07:41:19;3.60;99.90
14411;DHT22;7290;50.854;4.354;2022-12-11T07:43:46;3.60;99.90
14411;DHT22;7290;50.854;4.354;2022-12-11T07:46:13;3.50;99.90
14411;DHT22;7290;50.854;4.354;2022-12-11T07:48:41;3.50;99.90
14411;DHT22;7290;50.854;4.354;2022-12-11T07:51:09;3.50;99.90
14411;DHT22;7290;50.854;4.354;2022-12-11T07:53:35;3.50;99.90
14411;DHT22;7290;50.854;4.354;2022-12-11T07:56:01;3.40;99.90
14411;DHT22;7290;50.854;4.354;2022-12-11T07:58:27;3.40;99.90
14411;DHT22;7290;50.854;4.354;2022-12-11T08:00:54;3.40;99.90
14411;DHT22;7290;50.854;4.354;2022-12-11T08:03:22;3.40;99.90
14411;DHT22;7290;50.854;4.354;2022-12-11T08:05:50;3.30;99.90
14411;DHT22;7290;50.854;4.354;2022-12-11T08:08:17;3.20;99.90
14411;DHT22;7290;50.854;4.354;2022-12-11T08:10:43;3.20;99.90
14411;DHT22;7290;50.854;4.354;2022-12-11T08:13:16;3.20;99.90
14411;DHT22;7290;50.854;4.354;2022-12-11T08:15:42;3.20;99.90
14411;DHT22;7290;50.854;4.354;2022-12-11T08:18:09;3.30;99.90
14411;DHT22;7290;50.854;4.354;2022-12-11T08:20:37;3.40;99.90
14411;DHT22;7290;50.854;4.354;2022-12-11T08:23:04;3.40;99.90
14411;DHT22;7290;50.854;4.354;2022-12-11T08:25:30;3.40;99.90
14411;DHT22;7290;50.854;4.354;2022-12-11T08:27:56;3.20;99.90
14411;DHT22;7290;50.854;4.354;2022-12-11T08:30:22;3.30;99.90
14411;DHT22;7290;50.854;4.354;2022-12-11T08:32:48;3.40;99.90
14411;DHT22;7290;50.854;4.354;2022-12-11T08:35:15;3.60;99.90
14411;DHT22;7290;50.854;4.354;2022-12-11T08:37:41;3.30;99.90
14411;DHT22;7290;50.854;4.354;2022-12-11T08:40:08;3.20;99.90
14411;DHT22;7290;50.854;4.354;2022-12-11T08:42:37;3.00;99.90
14411;DHT22;7290;50.854;4.354;2022-12-11T08:45:03;3.10;99.90
14411;DHT22;7290;50.854;4.354;2022-12-11T08:47:30;3.30;99.90
14411;DHT22;7290;50.854;4.354;2022-12-11T08:49:56;3.40;99.90
14411;DHT22;7290;50.854;4.354;2022-12-11T08:52:23;3.30;99.90
14411;DHT22;7290;50.854;4.354;2022-12-11T08:54:50;3.20;99.90
14411;DHT22;7290;50.854;4.354;2022-12-11T08:57:16;3.30;99.90
14411;DHT22;7290;50.854;4.354;2022-12-11T08:59:42;3.30;99.90
14411;DHT22;7290;50.854;4.354;2022-12-11T09:02:10;3.40;99.90
14411;DHT22;7290;50.854;4.354;2022-12-11T09:04:36;3.30;99.90
14411;DHT22;7290;50.854;4.354;2022-12-11T09:07:03;3.30;99.90
14411;DHT22;7290;50.854;4.354;2022-12-11T09:09:29;3.40;99.90
14411;DHT22;7290;50.854;4.354;2022-12-11T09:11:55;3.20;99.90
14411;DHT22;7290;50.854;4.354;2022-12-11T09:14:22;3.20;99.90
14411;DHT22;7290;50.854;4.354;2022-12-11T09:16:48;3.30;99.90
14411;DHT22;7290;50.854;4.354;2022-12-11T09:19:16;3.30;99.90
14411;DHT22;7290;50.854;4.354;2022-12-11T09:21:43;3.40;99.90
14411;DHT22;7290;50.854;4.354;2022-12-11T09:24:11;3.50;99.90
14411;DHT22;7290;50.854;4.354;2022-12-11T09:26:42;3.60;99.90
14411;DHT22;7290;50.854;4.354;2022-12-11T09:29:10;3.60;99.90
14411;DHT22;7290;50.854;4.354;2022-12-11T09:31:39;3.60;99.90
14411;DHT22;7290;50.854;4.354;2022-12-11T09:34:07;3.50;99.90
14411;DHT22;7290;50.854;4.354;2022-12-11T09:36:34;3.60;99.90
14411;DHT22;7290;50.854;4.354;2022-12-11T09:39:04;3.60;99.90
14411;DHT22;7290;50.854;4.354;2022-12-11T09:41:39;3.30;99.90
14411;DHT22;7290;50.854;4.354;2022-12-11T09:44:38;3.50;99.90
14411;DHT22;7290;50.854;4.354;2022-12-11T09:47:21;3.60;99.90
14411;DHT22;7290;50.854;4.354;2022-12-11T09:49:50;3.60;99.90
14411;DHT22;7290;50.854;4.354;2022-12-11T09:52:21;3.50;99.90
14411;DHT22;7290;50.854;4.354;2022-12-11T09:54:53;3.50;99.90
14411;DHT22;7290;50.854;4.354;2022-12-11T09:57:33;3.30;99.90
14411;DHT22;7290;50.854;4.354;2022-12-11T10:00:25;3.60;99.90
14411;DHT22;7290;50.854;4.354;2022-12-11T10:03:27;3.90;99.90
14411;DHT22;7290;50.854;4.354;2022-12-11T10:06:06;3.90;99.90
14411;DHT22;7290;50.854;4.354;2022-12-11T10:08:47;3.80;99.90
14411;DHT22;7290;50.854;4.354;2022-12-11T10:11:35;3.80;99.90
14411;DHT22;7290;50.854;4.354;2022-12-11T10:14:10;4.00;99.90
14411;DHT22;7290;50.854;4.354;2022-12-11T10:16:39;3.80;99.90
14411;DHT22;7290;50.854;4.354;2022-12-11T10:19:16;3.90;99.90
14411;DHT22;7290;50.854;4.354;2022-12-11T10:21:43;4.10;99.90
14411;DHT22;7290;50.854;4.354;2022-12-11T10:24:15;4.20;99.90
14411;DHT22;7290;50.854;4.354;2022-12-11T10:26:42;4.20;99.90
14411;DHT22;7290;50.854;4.354;2022-12-11T10:29:13;4.10;99.90
14411;DHT22;7290;50.854;4.354;2022-12-11T10:31:48;4.10;99.90
14411;DHT22;7290;50.854;4.354;2022-12-11T10:34:19;3.90;99.90
14411;DHT22;7290;50.854;4.354;2022-12-11T10:36:48;4.00;99.90
14411;DHT22;7290;50.854;4.354;2022-12-11T10:39:16;4.00;99.90
14411;DHT22;7290;50.854;4.354;2022-12-11T10:41:44;4.00;99.90
14411;DHT22;7290;50.854;4.354;2022-12-11T10:44:15;4.10;99.90
14411;DHT22;7290;50.854;4.354;2022-12-11T10:46:42;4.10;99.90
14411;DHT22;7290;50.854;4.354;2022-12-11T10:49:20;4.10;99.90
14411;DHT22;7290;50.854;4.354;2022-12-11T10:51:47;4.00;99.90
14411;DHT22;7290;50.854;4.354;2022-12-11T10:54:28;3.90;99.90
14411;DHT22;7290;50.854;4.354;2022-12-11T10:56:54;3.70;99.90
14411;DHT22;7290;50.854;4.354;2022-12-11T10:59:25;3.70;99.90
14411;DHT22;7290;50.854;4.354;2022-12-11T11:01:54;4.00;99.90
14411;DHT22;7290;50.854;4.354;2022-12-11T11:04:25;4.30;99.90
14411;DHT22;7290;50.854;4.354;2022-12-11T11:07:11;4.80;99.90
14411;DHT22;7290;50.854;4.354;2022-12-11T11:09:38;4.90;99.90
14411;DHT22;7290;50.854;4.354;2022-12-11T11:12:16;5.10;99.90
14411;DHT22;7290;50.854;4.354;2022-12-11T11:14:44;6.00;99.90
14411;DHT22;7290;50.854;4.354;2022-12-11T11:17:14;6.90;99.90
14411;DHT22;7290;50.854;4.354;2022-12-11T11:19:40;7.50;99.90
14411;DHT22;7290;50.854;4.354;2022-12-11T11:22:13;8.20;99.90
14411;DHT22;7290;50.854;4.354;2022-12-11T11:24:42;8.40;99.90
14411;DHT22;7290;50.854;4.354;2022-12-11T11:27:12;8.80;99.90
14411;DHT22;7290;50.854;4.354;2022-12-11T11:29:45;9.50;99.90
14411;DHT22;7290;50.854;4.354;2022-12-11T11:32:16;9.50;99.90
14411;DHT22;7290;50.854;4.354;2022-12-11T11:34:44;8.90;99.90
14411;DHT22;7290;50.854;4.354;2022-12-11T11:37:23;8.40;99.90
14411;DHT22;7290;50.854;4.354;2022-12-11T11:39:54;7.40;99.90
14411;DHT22;7290;50.854;4.354;2022-12-11T11:42:28;6.70;99.90
14411;DHT22;7290;50.854;4.354;2022-12-11T11:45:02;6.00;99.90
14411;DHT22;7290;50.854;4.354;2022-12-11T11:47:33;6.00;99.90
14411;DHT22;7290;50.854;4.354;2022-12-11T11:50:06;5.80;99.90
14411;DHT22;7290;50.854;4.354;2022-12-11T11:52:36;6.10;99.90
14411;DHT22;7290;50.854;4.354;2022-12-11T11:55:08;6.10;99.90
14411;DHT22;7290;50.854;4.354;2022-12-11T11:57:42;6.10;99.90
14411;DHT22;7290;50.854;4.354;2022-12-11T12:00:18;5.90;99.90
14411;DHT22;7290;50.854;4.354;2022-12-11T12:02:45;5.70;99.90
14411;DHT22;7290;50.854;4.354;2022-12-11T12:05:14;5.50;99.90
14411;DHT22;7290;50.854;4.354;2022-12-11T12:07:47;5.50;99.90
14411;DHT22;7290;50.854;4.354;2022-12-11T12:10:20;5.50;99.90
14411;DHT22;7290;50.854;4.354;2022-12-11T12:12:55;5.50;99.90
14411;DHT22;7290;50.854;4.354;2022-12-11T12:15:32;5.50;99.90
14411;DHT22;7290;50.854;4.354;2022-12-11T12:18:09;5.30;99.90
14411;DHT22;7290;50.854;4.354;2022-12-11T12:20:41;5.20;99.90
14411;DHT22;7290;50.854;4.354;2022-12-11T12:26:02;5.10;99.90
14411;DHT22;7290;50.854;4.354;2022-12-11T12:28:40;5.20;99.90
14411;DHT22;7290;50.854;4.354;2022-12-11T12:31:20;5.00;99.90
14411;DHT22;7290;50.854;4.354;2022-12-11T12:33:56;4.90;99.90
14411;DHT22;7290;50.854;4.354;2022-12-11T12:36:31;5.10;99.90
14411;DHT22;7290;50.854;4.354;2022-12-11T12:39:01;4.90;99.90
14411;DHT22;7290;50.854;4.354;2022-12-11T12:41:37;4.70;99.90
14411;DHT22;7290;50.854;4.354;2022-12-11T12:44:12;4.60;99.90
14411;DHT22;7290;50.854;4.354;2022-12-11T12:46:51;4.60;99.90
14411;DHT22;7290;50.854;4.354;2022-12-11T12:49:29;4.60;99.90
14411;DHT22;7290;50.854;4.354;2022-12-11T12:51:58;4.50;99.90
14411;DHT22;7290;50.854;4.354;2022-12-11T12:54:27;4.60;99.90
14411;DHT22;7290;50.854;4.354;2022-12-11T12:56:54;4.70;99.90
14411;DHT22;7290;50.854;4.354;2022-12-11T12:59:22;4.70;99.90
14411;DHT22;7290;50.854;4.354;2022-12-11T13:01:52;4.80;99.90
14411;DHT22;7290;50.854;4.354;2022-12-11T13:04:38;4.90;99.90
14411;DHT22;7290;50.854;4.354;2022-12-11T13:07:18;4.80;99.90
14411;DHT22;7290;50.854;4.354;2022-12-11T13:09:56;4.70;99.90
14411;DHT22;7290;50.854;4.354;2022-12-11T13:12:31;4.60;99.90
14411;DHT22;7290;50.854;4.354;2022-12-11T13:14:58;4.50;99.90
14411;DHT22;7290;50.854;4.354;2022-12-11T13:17:35;4.50;99.90
14411;DHT22;7290;50.854;4.354;2022-12-11T13:20:14;4.50;99.90
14411;DHT22;7290;50.854;4.354;2022-12-11T13:22:53;4.70;99.90
14411;DHT22;7290;50.854;4.354;2022-12-11T13:25:26;4.80;99.90
14411;DHT22;7290;50.854;4.354;2022-12-11T13:28:03;4.80;99.90
14411;DHT22;7290;50.854;4.354;2022-12-11T13:30:30;4.80;99.90
14411;DHT22;7290;50.854;4.354;2022-12-11T13:33:01;4.70;99.90
14411;DHT22;7290;50.854;4.354;2022-12-11T13:35:29;4.70;99.90
14411;DHT22;7290;50.854;4.354;2022-12-11T13:38:02;4.90;99.90
14411;DHT22;7290;50.854;4.354;2022-12-11T13:40:34;4.80;99.90
14411;DHT22;7290;50.854;4.354;2022-12-11T13:43:06;4.60;99.90
14411;DHT22;7290;50.854;4.354;2022-12-11T13:45:38;4.50;99.90
14411;DHT22;7290;50.854;4.354;2022-12-11T13:48:16;4.40;99.90
14411;DHT22;7290;50.854;4.354;2022-12-11T13:50:43;4.40;99.90
14411;DHT22;7290;50.854;4.354;2022-12-11T13:53:14;4.50;99.90
14411;DHT22;7290;50.854;4.354;2022-12-11T13:55:40;4.40;99.90
14411;DHT22;7290;50.854;4.354;2022-12-11T13:58:15;4.40;99.90
14411;DHT22;7290;50.854;4.354;2022-12-11T14:00:41;4.00;99.90
14411;DHT22;7290;50.854;4.354;2022-12-11T14:03:09;4.10;99.90
14411;DHT22;7290;50.854;4.354;2022-12-11T14:05:36;4.00;99.90
14411;DHT22;7290;50.854;4.354;2022-12-11T14:08:06;4.20;99.90
14411;DHT22;7290;50.854;4.354;2022-12-11T14:10:33;4.40;99.90
14411;DHT22;7290;50.854;4.354;2022-12-11T14:13:02;4.60;99.90
14411;DHT22;7290;50.854;4.354;2022-12-11T14:15:30;4.80;99.90
14411;DHT22;7290;50.854;4.354;2022-12-11T14:17:58;4.90;99.90
14411;DHT22;7290;50.854;4.354;2022-12-11T14:20:27;5.00;99.90
14411;DHT22;7290;50.854;4.354;2022-12-11T14:23:04;5.00;99.90
14411;DHT22;7290;50.854;4.354;2022-12-11T14:25:30;5.00;99.90
14411;DHT22;7290;50.854;4.354;2022-12-11T14:27:56;5.00;99.90
14411;DHT22;7290;50.854;4.354;2022-12-11T14:30:25;4.90;99.90
14411;DHT22;7290;50.854;4.354;2022-12-11T14:32:54;4.60;99.90
14411;DHT22;7290;50.854;4.354;2022-12-11T14:35:25;4.80;99.90
14411;DHT22;7290;50.854;4.354;2022-12-11T14:37:53;4.30;99.90
14411;DHT22;7290;50.854;4.354;2022-12-11T14:40:23;4.30;99.90
14411;DHT22;7290;50.854;4.354;2022-12-11T14:42:53;4.00;99.90
14411;DHT22;7290;50.854;4.354;2022-12-11T14:45:25;4.20;99.90
14411;DHT22;7290;50.854;4.354;2022-12-11T14:47:56;4.40;99.90
14411;DHT22;7290;50.854;4.354;2022-12-11T14:50:28;4.40;99.90
14411;DHT22;7290;50.854;4.354;2022-12-11T14:52:59;4.40;99.90
14411;DHT22;7290;50.854;4.354;2022-12-11T14:55:29;4.40;99.90
14411;DHT22;7290;50.854;4.354;2022-12-11T14:57:57;4.20;99.90
14411;DHT22;7290;50.854;4.354;2022-12-11T15:00:26;4.10;99.90
14411;DHT22;7290;50.854;4.354;2022-12-11T15:03:01;4.10;99.90
14411;DHT22;7290;50.854;4.354;2022-12-11T15:05:28;4.20;99.90
14411;DHT22;7290;50.854;4.354;2022-12-11T15:07:57;4.30;99.90
14411;DHT22;7290;50.854;4.354;2022-12-11T15:10:30;4.20;99.90
14411;DHT22;7290;50.854;4.354;2022-12-11T15:13:00;4.30;99.90
14411;DHT22;7290;50.854;4.354;2022-12-11T15:15:27;4.50;99.90
14411;DHT22;7290;50.854;4.354;2022-12-11T15:17:54;4.60;99.90
14411;DHT22;7290;50.854;4.354;2022-12-11T15:20:24;4.50;99.90
14411;DHT22;7290;50.854;4.354;2022-12-11T15:22:52;4.40;99.90
14411;DHT22;7290;50.854;4.354;2022-12-11T15:25:23;4.30;99.90
14411;DHT22;7290;50.854;4.354;2022-12-11T15:27:51;4.40;99.90
14411;DHT22;7290;50.854;4.354;2022-12-11T15:30:33;4.50;99.90
14411;DHT22;7290;50.854;4.354;2022-12-11T15:33:17;4.50;99.90
14411;DHT22;7290;50.854;4.354;2022-12-11T15:35:54;4.40;99.90
14411;DHT22;7290;50.854;4.354;2022-12-11T15:38:27;4.60;99.90
14411;DHT22;7290;50.854;4.354;2022-12-11T15:40:53;4.70;99.90
14411;DHT22;7290;50.854;4.354;2022-12-11T15:43:20;4.70;99.90
14411;DHT22;7290;50.854;4.354;2022-12-11T15:45:46;4.70;99.90
14411;DHT22;7290;50.854;4.354;2022-12-11T15:48:12;4.60;99.90
14411;DHT22;7290;50.854;4.354;2022-12-11T15:50:38;4.60;99.90
14411;DHT22;7290;50.854;4.354;2022-12-11T15:53:05;4.60;99.90
14411;DHT22;7290;50.854;4.354;2022-12-11T15:55:32;4.40;99.90
14411;DHT22;7290;50.854;4.354;2022-12-11T15:58:02;4.30;99.90
14411;DHT22;7290;50.854;4.354;2022-12-11T16:00:29;4.40;99.90
14411;DHT22;7290;50.854;4.354;2022-12-11T16:02:57;4.50;99.90
14411;DHT22;7290;50.854;4.354;2022-12-11T16:05:24;4.30;99.90
14411;DHT22;7290;50.854;4.354;2022-12-11T16:07:51;4.40;99.90
14411;DHT22;7290;50.854;4.354;2022-12-11T16:10:20;4.40;99.90
14411;DHT22;7290;50.854;4.354;2022-12-11T16:12:47;4.40;99.90
14411;DHT22;7290;50.854;4.354;2022-12-11T16:15:16;4.60;99.90
14411;DHT22;7290;50.854;4.354;2022-12-11T16:17:43;4.70;99.90
14411;DHT22;7290;50.854;4.354;2022-12-11T16:20:09;4.40;99.90
14411;DHT22;7290;50.854;4.354;2022-12-11T16:22:40;4.40;99.90